createdAt,value
2018-07-30T00:01:01.622Z,4.73
2018-07-30T00:03:29.493Z,4.90
2018-07-30T00:05:57.337Z,5.47
2018-07-30T00:08:25.142Z,5.00
2018-07-30T00:10:52.768Z,4.93
2018-07-30T00:13:20.805Z,5.33
2018-07-30T00:15:48.906Z,5.57
2018-07-30T00:18:16.786Z,5.10
2018-07-30T00:20:44.575Z,4.80
2018-07-30T00:23:12.498Z,5.00
2018-07-30T00:25:40.574Z,5.60
2018-07-30T00:28:08.413Z,4.80
2018-07-30T00:30:36.735Z,5.07
2018-07-30T00:33:04.730Z,4.50
2018-07-30T00:35:32.583Z,5.10
2018-07-30T00:38:00.924Z,5.70
2018-07-30T00:40:29.316Z,4.73
2018-07-30T00:42:57.006Z,5.20
2018-07-30T00:45:25.310Z,4.90
2018-07-30T00:47:53.135Z,5.90
2018-07-30T00:50:22.253Z,5.13
2018-07-30T00:52:51.765Z,5.30
2018-07-30T00:55:19.683Z,5.80
2018-07-30T00:57:47.790Z,5.00
2018-07-30T01:00:16.044Z,5.50
2018-07-30T01:02:43.878Z,4.70
2018-07-30T01:05:11.689Z,5.00
2018-07-30T01:07:39.650Z,4.93
2018-07-30T01:10:07.411Z,4.83
2018-07-30T01:12:35.678Z,4.97
2018-07-30T01:15:03.750Z,5.53
2018-07-30T01:17:31.551Z,4.57
2018-07-30T01:19:59.709Z,4.93
2018-07-30T01:22:27.607Z,4.53
2018-07-30T01:24:55.612Z,5.00
2018-07-30T01:27:23.726Z,4.83
2018-07-30T01:29:51.638Z,4.80
2018-07-30T01:32:19.425Z,5.03
2018-07-30T01:34:47.250Z,4.10
2018-07-30T01:37:15.270Z,4.10
2018-07-30T01:39:43.074Z,4.57
2018-07-30T01:42:10.893Z,4.63
2018-07-30T01:44:38.903Z,3.90
2018-07-30T01:47:06.969Z,4.03
2018-07-30T01:49:34.764Z,4.10
2018-07-30T01:52:02.703Z,4.27
2018-07-30T01:54:30.631Z,4.30
2018-07-30T01:56:58.360Z,4.40
2018-07-30T01:59:26.129Z,4.60
2018-07-30T02:01:53.727Z,4.10
2018-07-30T02:04:21.543Z,4.27
2018-07-30T02:06:49.242Z,4.17
2018-07-30T02:09:16.942Z,3.50
2018-07-30T02:11:44.527Z,4.30
2018-07-30T02:14:12.082Z,4.27
2018-07-30T02:16:39.632Z,4.33
2018-07-30T02:19:07.172Z,3.70
2018-07-30T02:21:34.759Z,4.53
2018-07-30T02:24:02.482Z,4.20
2018-07-30T02:26:30.050Z,4.87
2018-07-30T02:28:57.580Z,3.97
2018-07-30T02:31:25.207Z,3.90
2018-07-30T02:33:52.765Z,5.10
2018-07-30T02:36:20.405Z,4.50
2018-07-30T02:38:47.953Z,4.67
2018-07-30T02:41:15.513Z,4.40
2018-07-30T02:43:43.231Z,4.57
2018-07-30T02:46:10.754Z,4.73
2018-07-30T02:48:38.341Z,4.53
2018-07-30T02:51:05.924Z,4.20
2018-07-30T02:53:33.644Z,4.33
2018-07-30T02:56:01.190Z,4.47
2018-07-30T02:58:28.765Z,4.13
2018-07-30T03:00:56.320Z,4.50
2018-07-30T03:03:23.835Z,4.10
2018-07-30T03:05:51.451Z,4.40
2018-07-30T03:08:19.085Z,5.13
2018-07-30T03:10:46.555Z,3.97
2018-07-30T03:13:14.130Z,4.80
2018-07-30T03:15:41.760Z,5.20
2018-07-30T03:18:09.554Z,4.60
2018-07-30T03:20:37.200Z,4.90
2018-07-30T03:23:05.164Z,4.70
2018-07-30T03:25:32.743Z,4.60
2018-07-30T03:28:00.319Z,4.30
2018-07-30T03:30:27.820Z,4.47
2018-07-30T03:32:55.495Z,4.50
2018-07-30T03:35:23.166Z,4.77
2018-07-30T03:37:50.971Z,4.70
2018-07-30T03:40:18.585Z,4.60
2018-07-30T03:42:46.165Z,4.40
2018-07-30T03:45:13.740Z,4.40
2018-07-30T03:47:41.379Z,4.87
2018-07-30T03:50:09.160Z,4.47
2018-07-30T03:52:36.815Z,4.90
2018-07-30T03:55:04.924Z,4.70
2018-07-30T03:57:32.467Z,4.37
2018-07-30T04:00:00.034Z,4.50
2018-07-30T04:02:27.597Z,4.90
2018-07-30T04:04:55.368Z,4.33
2018-07-30T04:07:22.893Z,4.73
2018-07-30T04:09:50.921Z,4.37
2018-07-30T04:12:18.426Z,4.70
2018-07-30T04:14:46.432Z,4.47
2018-07-30T04:17:14.035Z,5.10
2018-07-30T04:19:41.652Z,4.47
2018-07-30T04:22:09.328Z,4.30
2018-07-30T04:24:36.949Z,5.17
2018-07-30T04:27:05.118Z,4.80
2018-07-30T04:29:32.788Z,5.03
2018-07-30T04:32:00.315Z,5.20
2018-07-30T04:34:27.947Z,5.43
2018-07-30T04:36:55.451Z,5.17
2018-07-30T04:39:23.129Z,5.20
2018-07-30T04:41:50.694Z,4.80
2018-07-30T04:44:18.256Z,5.43
2018-07-30T04:46:45.928Z,4.83
2018-07-30T04:49:13.548Z,4.70
2018-07-30T04:51:41.425Z,6.50
2018-07-30T04:54:08.946Z,5.63
2018-07-30T04:56:36.505Z,5.47
2018-07-30T04:59:04.166Z,5.97
2018-07-30T05:01:31.700Z,5.77
2018-07-30T05:03:59.284Z,5.20
2018-07-30T05:06:26.946Z,5.70
2018-07-30T05:08:54.596Z,5.60
2018-07-30T05:11:22.258Z,5.23
2018-07-30T05:13:50.232Z,5.33
2018-07-30T05:16:17.764Z,4.73
2018-07-30T05:18:45.448Z,4.83
2018-07-30T05:21:13.728Z,5.40
2018-07-30T05:23:41.625Z,5.43
2018-07-30T05:26:09.144Z,4.90
2018-07-30T05:28:36.858Z,4.33
2018-07-30T05:31:04.421Z,4.93
2018-07-30T05:33:32.121Z,4.07
2018-07-30T05:36:00.765Z,4.97
2018-07-30T05:38:28.428Z,4.00
2018-07-30T05:40:56.831Z,4.00
2018-07-30T05:43:24.425Z,3.83
2018-07-30T05:45:52.096Z,3.70
2018-07-30T05:48:19.636Z,4.30
2018-07-30T05:50:47.403Z,4.13
2018-07-30T05:53:15.327Z,3.70
2018-07-30T05:55:43.009Z,4.93
2018-07-30T05:58:10.617Z,4.37
2018-07-30T06:00:38.124Z,4.20
2018-07-30T06:03:05.762Z,5.20
2018-07-30T06:05:33.344Z,4.07
2018-07-30T06:08:00.900Z,4.30
2018-07-30T06:10:28.457Z,4.40
2018-07-30T06:12:56.006Z,5.37
2018-07-30T06:15:23.648Z,4.40
2018-07-30T06:17:51.296Z,4.10
2018-07-30T06:20:18.896Z,4.20
2018-07-30T06:22:46.392Z,3.87
2018-07-30T06:25:14.078Z,3.13
2018-07-30T06:27:42.285Z,3.67
2018-07-30T06:30:10.222Z,3.27
2018-07-30T06:32:38.174Z,3.50
2018-07-30T06:35:06.337Z,3.30
2018-07-30T06:37:33.953Z,3.27
2018-07-30T06:40:01.693Z,3.73
2018-07-30T06:42:29.248Z,3.57
2018-07-30T06:44:57.128Z,3.23
2018-07-30T06:47:24.750Z,3.67
2018-07-30T06:49:52.500Z,3.10
2018-07-30T06:52:20.264Z,3.40
2018-07-30T06:54:47.836Z,2.80
2018-07-30T06:57:15.395Z,3.30
2018-07-30T06:59:43.050Z,3.37
2018-07-30T07:02:10.588Z,3.00
2018-07-30T07:04:38.244Z,2.77
2018-07-30T07:07:05.990Z,3.30
2018-07-30T07:09:33.508Z,2.60
2018-07-30T07:12:01.070Z,2.87
2018-07-30T07:14:28.578Z,3.33
2018-07-30T07:16:56.231Z,2.80
2018-07-30T07:19:23.870Z,3.53
2018-07-30T07:21:51.409Z,3.60
2018-07-30T07:24:19.092Z,2.90
2018-07-30T07:26:46.676Z,3.27
2018-07-30T07:29:14.309Z,3.37
2018-07-30T07:31:42.006Z,3.27
2018-07-30T07:34:09.620Z,3.33
2018-07-30T07:36:37.333Z,2.57
2018-07-30T07:39:07.915Z,2.83
2018-07-30T07:41:35.637Z,3.07
2018-07-30T07:44:03.741Z,3.30
2018-07-30T07:46:31.327Z,2.90
2018-07-30T07:48:59.095Z,3.10
2018-07-30T07:51:26.684Z,3.23
2018-07-30T07:53:54.249Z,3.70
2018-07-30T07:56:21.826Z,2.63
2018-07-30T07:58:49.364Z,3.17
2018-07-30T08:01:16.917Z,3.30
2018-07-30T08:03:44.436Z,3.30
2018-07-30T08:06:12.201Z,3.20
2018-07-30T08:08:39.872Z,3.60
2018-07-30T08:11:07.653Z,3.50
2018-07-30T08:13:35.108Z,4.10
2018-07-30T08:16:02.665Z,3.17
2018-07-30T08:18:31.277Z,3.43
2018-07-30T08:20:58.813Z,3.50
2018-07-30T08:23:26.550Z,3.23
2018-07-30T08:25:54.336Z,3.80
2018-07-30T08:28:22.336Z,3.40
2018-07-30T08:30:49.948Z,3.53
2018-07-30T08:33:17.617Z,4.10
2018-07-30T08:35:45.289Z,3.27
2018-07-30T08:38:12.863Z,4.73
2018-07-30T08:40:40.432Z,3.10
2018-07-30T08:43:08.679Z,2.80
2018-07-30T08:45:36.284Z,3.10
2018-07-30T08:48:03.864Z,3.70
2018-07-30T08:50:31.511Z,3.40
2018-07-30T08:52:59.108Z,3.00
2018-07-30T08:55:26.715Z,3.63
2018-07-30T08:57:54.800Z,3.20
2018-07-30T09:00:22.284Z,3.30
2018-07-30T09:02:49.874Z,3.00
2018-07-30T09:05:17.496Z,2.37
2018-07-30T09:07:45.136Z,2.63
2018-07-30T09:10:12.692Z,3.00
2018-07-30T09:12:40.353Z,2.87
2018-07-30T09:15:07.904Z,2.97
2018-07-30T09:17:35.480Z,2.87
2018-07-30T09:20:03.932Z,2.87
2018-07-30T09:22:31.449Z,3.27
2018-07-30T09:24:58.995Z,3.13
2018-07-30T09:27:26.518Z,3.10
2018-07-30T09:29:54.098Z,3.30
2018-07-30T09:32:21.670Z,4.07
2018-07-30T09:34:49.316Z,3.70
2018-07-30T09:37:16.871Z,3.17
2018-07-30T09:39:44.451Z,3.13
2018-07-30T09:42:12.054Z,3.57
2018-07-30T09:44:39.728Z,3.20
2018-07-30T09:47:07.251Z,3.20
2018-07-30T09:49:34.765Z,2.93
2018-07-30T09:52:02.352Z,3.10
2018-07-30T09:54:29.937Z,3.17
2018-07-30T09:56:57.464Z,2.83
2018-07-30T09:59:25.139Z,3.40
2018-07-30T10:01:52.644Z,2.87
2018-07-30T10:04:20.129Z,3.23
2018-07-30T10:06:47.784Z,3.07
2018-07-30T10:09:15.490Z,3.90
2018-07-30T10:11:43.141Z,3.30
2018-07-30T10:14:10.646Z,3.40
2018-07-30T10:16:38.171Z,3.50
2018-07-30T10:19:05.715Z,3.10
2018-07-30T10:21:33.346Z,3.80
2018-07-30T10:24:00.952Z,3.53
2018-07-30T10:26:28.499Z,3.90
2018-07-30T10:28:56.082Z,4.00
2018-07-30T10:31:23.742Z,4.60
2018-07-30T10:33:51.348Z,3.50
2018-07-30T10:36:19.016Z,3.53
2018-07-30T10:38:46.461Z,3.97
2018-07-30T10:41:13.899Z,3.83
2018-07-30T10:43:41.434Z,3.50
2018-07-30T10:46:09.038Z,3.93
2018-07-30T10:48:36.696Z,3.40
2018-07-30T10:51:04.232Z,3.40
2018-07-30T10:53:31.815Z,3.83
2018-07-30T10:55:59.249Z,3.80
2018-07-30T10:58:26.955Z,4.30
2018-07-30T11:00:54.623Z,3.40
2018-07-30T11:03:22.471Z,3.30
2018-07-30T11:05:50.004Z,3.73
2018-07-30T11:08:17.532Z,5.23
2018-07-30T11:10:45.441Z,4.73
2018-07-30T11:13:13.053Z,3.43
2018-07-30T11:15:41.100Z,3.40
2018-07-30T11:18:08.578Z,3.70
2018-07-30T11:20:36.152Z,3.80
2018-07-30T11:23:03.756Z,3.97
2018-07-30T11:25:31.326Z,4.50
2018-07-30T11:27:59.084Z,3.63
2018-07-30T11:30:26.646Z,4.03
2018-07-30T11:32:54.108Z,4.23
2018-07-30T11:35:21.813Z,4.17
2018-07-30T11:37:49.427Z,4.20
2018-07-30T11:40:17.064Z,4.30
2018-07-30T11:42:44.716Z,3.80
2018-07-30T11:45:12.455Z,4.63
2018-07-30T11:47:39.951Z,4.40
2018-07-30T11:50:07.606Z,4.10
2018-07-30T11:52:35.141Z,4.10
2018-07-30T11:55:02.937Z,3.93
2018-07-30T11:57:30.915Z,3.43
2018-07-30T11:59:58.487Z,4.87
2018-07-30T12:02:26.062Z,4.43
2018-07-30T12:04:53.660Z,3.83
2018-07-30T12:07:21.132Z,4.30
2018-07-30T12:09:48.806Z,3.50
2018-07-30T12:12:16.769Z,5.00
2018-07-30T12:14:45.193Z,3.90
2018-07-30T12:17:12.843Z,3.87
2018-07-30T12:19:40.801Z,3.80
2018-07-30T12:22:09.639Z,3.80
2018-07-30T12:24:37.131Z,4.20
2018-07-30T12:27:04.839Z,3.63
2018-07-30T12:29:32.883Z,4.10
2018-07-30T12:32:00.755Z,3.80
2018-07-30T12:34:28.435Z,4.23
2018-07-30T12:36:56.076Z,4.20
2018-07-30T12:39:23.566Z,3.93
2018-07-30T12:41:51.043Z,4.40
2018-07-30T12:44:18.511Z,4.10
2018-07-30T12:46:46.294Z,4.90
2018-07-30T12:49:14.034Z,3.20
2018-07-30T12:51:41.821Z,3.50
2018-07-30T12:54:09.441Z,3.70
2018-07-30T12:56:37.173Z,3.40
2018-07-30T12:59:04.773Z,3.60
2018-07-30T13:01:32.468Z,3.50
2018-07-30T13:04:00.017Z,4.00
2018-07-30T13:06:27.512Z,4.07
2018-07-30T13:08:55.172Z,4.10
2018-07-30T13:11:22.726Z,4.10
2018-07-30T13:13:50.358Z,4.13
2018-07-30T13:16:18.090Z,3.70
2018-07-30T13:18:45.760Z,3.67
2018-07-30T13:21:13.267Z,4.00
2018-07-30T13:23:40.825Z,4.37
2018-07-30T13:26:08.375Z,3.57
2018-07-30T13:28:35.859Z,3.33
2018-07-30T13:31:03.400Z,3.73
2018-07-30T13:33:31.041Z,3.90
2018-07-30T13:35:58.825Z,4.10
2018-07-30T13:38:26.472Z,3.73
2018-07-30T13:40:54.806Z,3.67
2018-07-30T13:43:22.326Z,3.87
2018-07-30T13:45:49.846Z,3.50
2018-07-30T13:48:17.273Z,3.40
2018-07-30T13:50:44.863Z,3.40
2018-07-30T13:53:13.254Z,3.50
2018-07-30T13:55:40.835Z,3.53
2018-07-30T13:58:08.341Z,3.03
2018-07-30T14:00:35.927Z,3.60
2018-07-30T14:03:03.533Z,3.40
2018-07-30T14:05:31.161Z,3.30
2018-07-30T14:07:58.971Z,3.20
2018-07-30T14:10:26.556Z,3.50
2018-07-30T14:12:54.324Z,3.93
2018-07-30T14:15:21.909Z,3.67
2018-07-30T14:17:49.426Z,3.67
2018-07-30T14:20:17.497Z,3.20
2018-07-30T14:22:45.071Z,3.60
2018-07-30T14:25:12.760Z,3.50
2018-07-30T14:27:40.438Z,3.20
2018-07-30T14:30:08.845Z,2.77
2018-07-30T14:32:36.509Z,3.37
2018-07-30T14:35:04.294Z,3.60
2018-07-30T14:37:32.023Z,2.93
2018-07-30T14:40:00.990Z,2.60
2018-07-30T14:42:28.628Z,3.33
2018-07-30T14:44:56.287Z,2.63
2018-07-30T14:47:23.768Z,3.20
2018-07-30T14:49:51.267Z,3.03
2018-07-30T14:52:18.933Z,2.97
2018-07-30T14:54:46.623Z,3.47
2018-07-30T14:57:14.567Z,3.43
2018-07-30T14:59:42.626Z,3.47
2018-07-30T15:02:09.952Z,3.10
2018-07-30T15:04:37.403Z,3.07
2018-07-30T15:07:05.163Z,3.57
2018-07-30T15:09:32.799Z,3.57
2018-07-30T15:12:00.471Z,3.00
2018-07-30T15:14:27.985Z,3.50
2018-07-30T15:16:55.565Z,3.07
2018-07-30T15:19:23.177Z,3.10
2018-07-30T15:21:50.840Z,3.40
2018-07-30T15:24:18.977Z,3.00
2018-07-30T15:26:46.945Z,3.60
2018-07-30T15:29:14.440Z,3.90
2018-07-30T15:31:41.959Z,3.50
2018-07-30T15:34:09.600Z,2.90
2018-07-30T15:36:37.197Z,3.43
2018-07-30T15:39:07.444Z,3.33
2018-07-30T15:41:35.044Z,3.30
2018-07-30T15:44:04.151Z,3.77
2018-07-30T15:46:49.996Z,3.67
2018-07-30T15:49:17.872Z,6.13
2018-07-30T15:51:45.765Z,3.83
2018-07-30T15:54:16.568Z,3.63
2018-07-30T15:57:01.093Z,3.23
2018-07-30T15:59:28.616Z,3.77
2018-07-30T16:01:56.322Z,3.80
2018-07-30T16:04:23.844Z,3.73
2018-07-30T16:06:51.473Z,4.03
2018-07-30T16:09:19.111Z,3.63
2018-07-30T16:11:46.760Z,3.70
2018-07-30T16:14:17.021Z,3.37
2018-07-30T16:20:13.120Z,4.57
2018-07-30T16:22:42.571Z,3.80
2018-07-30T16:25:10.186Z,3.87
2018-07-30T16:27:39.775Z,3.63
2018-07-30T16:30:10.566Z,3.87
2018-07-30T16:32:41.120Z,3.43
2018-07-30T16:35:14.260Z,4.10
2018-07-30T16:41:24.571Z,3.80
2018-07-30T16:43:57.750Z,3.57
2018-07-30T16:46:27.491Z,3.90
2018-07-30T16:48:56.128Z,3.70
2018-07-30T16:51:23.968Z,4.07
2018-07-30T16:54:16.075Z,4.43
2018-07-30T16:56:48.678Z,4.27
2018-07-30T16:59:16.256Z,4.13
2018-07-30T17:01:43.921Z,4.57
2018-07-30T17:04:11.430Z,3.90
2018-07-30T17:06:39.532Z,3.90
2018-07-30T17:09:12.296Z,4.33
2018-07-30T17:11:47.830Z,3.97
2018-07-30T17:14:19.424Z,3.40
2018-07-30T17:17:07.047Z,4.43
2018-07-30T17:19:38.650Z,6.23
2018-07-30T17:22:06.215Z,3.87
2018-07-30T17:24:36.376Z,4.00
2018-07-30T17:27:04.613Z,3.83
2018-07-30T17:29:32.401Z,3.93
2018-07-30T17:32:02.089Z,3.80
2018-07-30T17:34:29.747Z,3.80
2018-07-30T17:37:00.973Z,4.13
2018-07-30T17:39:30.455Z,3.90
2018-07-30T17:41:58.976Z,3.87
2018-07-30T17:44:28.456Z,4.13
2018-07-30T17:46:56.700Z,3.80
2018-07-30T17:49:24.232Z,9.27
2018-07-30T17:51:51.759Z,3.73
2018-07-30T17:54:19.279Z,7.33
2018-07-30T17:56:46.848Z,5.90
2018-07-30T17:59:14.373Z,5.00
2018-07-30T18:01:41.844Z,4.00
2018-07-30T18:04:14.416Z,3.93
2018-07-30T18:06:42.287Z,3.70
2018-07-30T18:09:10.099Z,4.70
2018-07-30T18:11:38.117Z,4.30
2018-07-30T18:14:05.684Z,4.20
2018-07-30T18:17:02.080Z,3.87
2018-07-30T18:20:08.734Z,4.90
2018-07-30T18:22:38.453Z,4.80
2018-07-30T18:25:06.303Z,4.00
2018-07-30T18:27:34.532Z,4.50
2018-07-30T18:30:02.220Z,4.57
2018-07-30T18:32:29.929Z,4.80
2018-07-30T18:34:57.521Z,4.23
2018-07-30T18:37:26.017Z,4.10
2018-07-30T18:39:55.346Z,5.17
2018-07-30T18:42:23.052Z,4.47
2018-07-30T18:44:50.999Z,5.20
2018-07-30T18:47:19.234Z,4.73
2018-07-30T18:49:46.781Z,4.83
2018-07-30T18:52:14.473Z,5.90
2018-07-30T18:54:42.163Z,5.70
2018-07-30T18:57:10.990Z,6.07
2018-07-30T18:59:38.629Z,5.23
2018-07-30T19:02:06.404Z,7.50
2018-07-30T19:04:34.146Z,5.40
2018-07-30T19:07:01.680Z,5.00
2018-07-30T19:09:29.336Z,5.97
2018-07-30T19:11:56.999Z,5.80
2018-07-30T19:14:24.526Z,4.80
2018-07-30T19:16:52.995Z,5.07
2018-07-30T19:19:21.099Z,5.10
2018-07-30T19:21:49.100Z,4.70
2018-07-30T19:24:17.303Z,4.97
2018-07-30T19:26:44.823Z,4.93
2018-07-30T19:29:12.353Z,5.37
2018-07-30T19:31:39.797Z,5.10
2018-07-30T19:34:07.418Z,4.90
2018-07-30T19:36:35.085Z,4.97
2018-07-30T19:39:03.646Z,5.77
2018-07-30T19:41:31.245Z,4.83
2018-07-30T19:43:58.997Z,6.00
2018-07-30T19:46:26.750Z,5.00
2018-07-30T19:48:54.377Z,5.20
2018-07-30T19:51:22.389Z,5.33
2018-07-30T19:53:50.253Z,5.63
2018-07-30T19:56:18.325Z,5.30
2018-07-30T19:58:45.909Z,5.37
2018-07-30T20:01:13.425Z,5.33
2018-07-30T20:03:41.187Z,5.67
2018-07-30T20:06:08.737Z,5.77
2018-07-30T20:08:36.713Z,6.40
2018-07-30T20:11:04.266Z,6.70
2018-07-30T20:13:31.856Z,7.43
2018-07-30T20:15:59.451Z,5.93
2018-07-30T20:18:27.114Z,5.03
2018-07-30T20:20:55.219Z,5.70
2018-07-30T20:23:22.837Z,6.33
2018-07-30T20:25:50.370Z,6.50
2018-07-30T20:28:18.025Z,6.07
2018-07-30T20:30:45.801Z,6.57
2018-07-30T20:33:13.452Z,5.70
2018-07-30T20:35:41.448Z,5.83
2018-07-30T20:38:09.189Z,5.80
2018-07-30T20:40:36.982Z,6.40
2018-07-30T20:43:04.747Z,5.30
2018-07-30T20:45:32.390Z,6.37
2018-07-30T20:47:59.892Z,6.27
2018-07-30T20:50:27.502Z,5.60
2018-07-30T20:52:55.296Z,6.50
2018-07-30T20:55:23.064Z,6.13
2018-07-30T20:57:50.710Z,5.90
2018-07-30T21:00:18.249Z,6.53
2018-07-30T21:02:45.824Z,9.60
2018-07-30T21:05:13.349Z,11.30
2018-07-30T21:07:41.045Z,11.90
2018-07-30T21:10:09.036Z,8.03
2018-07-30T21:12:36.745Z,7.60
2018-07-30T21:15:05.303Z,7.10
2018-07-30T21:17:32.905Z,6.37
2018-07-30T21:20:00.656Z,9.07
2018-07-30T21:22:28.742Z,7.97
2018-07-30T21:24:57.255Z,8.10
2018-07-30T21:27:25.562Z,10.67
2018-07-30T21:29:53.513Z,7.10
2018-07-30T21:37:59.404Z,7.30
2018-07-30T21:40:27.095Z,7.40
2018-07-30T21:42:54.884Z,7.43
2018-07-30T21:45:22.626Z,7.70
2018-07-30T21:47:50.445Z,7.57
2018-07-30T21:50:18.085Z,7.53
2018-07-30T21:52:45.771Z,7.97
2018-07-30T21:55:13.430Z,7.67
2018-07-30T21:57:41.165Z,7.37
2018-07-30T22:00:13.817Z,8.07
2018-07-30T22:02:42.266Z,7.30
2018-07-30T22:05:11.994Z,7.47
2018-07-30T22:07:39.736Z,9.03
2018-07-30T22:10:07.602Z,7.90
2018-07-30T22:12:35.510Z,7.80
2018-07-30T22:15:03.312Z,7.43
2018-07-30T22:17:31.026Z,8.20
2018-07-30T22:19:58.807Z,7.80
2018-07-30T22:22:26.513Z,7.87
2018-07-30T22:24:54.376Z,7.40
2018-07-30T22:27:22.201Z,7.63
2018-07-30T22:29:50.158Z,7.20
2018-07-30T22:32:17.888Z,7.60
2018-07-30T22:34:45.718Z,7.77
2018-07-30T22:37:13.269Z,7.70
2018-07-30T22:39:41.049Z,7.73
2018-07-30T22:42:08.761Z,7.90
2018-07-30T22:44:36.731Z,8.30
2018-07-30T22:47:04.396Z,7.83
2018-07-30T22:49:32.072Z,9.10
2018-07-30T22:51:59.871Z,7.87
2018-07-30T22:54:27.460Z,8.93
2018-07-30T22:56:55.231Z,8.57
2018-07-30T22:59:22.966Z,9.27
2018-07-30T23:01:50.759Z,8.43
2018-07-30T23:04:18.519Z,9.40
2018-07-30T23:06:46.596Z,10.03
2018-07-30T23:09:14.745Z,9.30
2018-07-30T23:11:42.809Z,9.90
2018-07-30T23:14:10.602Z,9.37
2018-07-30T23:16:38.258Z,9.30
2018-07-30T23:19:05.987Z,9.00
2018-07-30T23:21:33.673Z,8.43
2018-07-30T23:24:01.331Z,9.33
2018-07-30T23:26:29.157Z,8.23
2018-07-30T23:28:56.963Z,8.73
2018-07-30T23:31:24.763Z,8.47
2018-07-30T23:33:52.587Z,8.20
2018-07-30T23:36:20.295Z,9.17
2018-07-30T23:38:47.933Z,9.03
2018-07-30T23:41:15.797Z,9.47
2018-07-30T23:43:43.612Z,7.80
2018-07-30T23:46:11.543Z,8.63
2018-07-30T23:48:39.569Z,9.47
2018-07-30T23:51:07.467Z,8.47
2018-07-30T23:53:35.129Z,9.30
2018-07-30T23:56:02.799Z,8.87
2018-07-30T23:58:30.468Z,8.50
